<?xml version="1.0" encoding="utf-8"?>
<gpx xmlns:xsi="http://www.w3.org/2001/XMLSchema-instance" xmlns:xsd="http://www.w3.org/2001/XMLSchema" version="1.1" creator="Shapelink.com" xmlns="http://www.topografix.com/GPX/1/1" xmlns:gpxtpx="http://www.garmin.com/xmlschemas/TrackPointExtension/v1">
  <metadata>
    <name>Ejecutar 6.80 km, 2020-03-10</name>
    <desc></desc>
    <author><name>Per Rooth</name></author> 
    <time>2020-03-10T18:09:22Z</time>
  </metadata>
  <trk>
    <name>Ejecutar 6.80 km, 2020-03-10</name>
    <trkseg>
      <trkpt lat="56.891314514063" lon="14.823843024057">
        <ele>172.4</ele>
        <time>2020-03-10T18:09:22Z</time>
      </trkpt>
      <trkpt lat="56.891330858768" lon="14.823777980513">
        <ele>173.6</ele>
        <time>2020-03-10T18:09:24Z</time>
      </trkpt>
      <trkpt lat="56.891340581772" lon="14.82365417985">
        <ele>172.4</ele>
        <time>2020-03-10T18:09:28Z</time>
      </trkpt>
      <trkpt lat="56.891311580398" lon="14.823309767579">
        <ele>172</ele>
        <time>2020-03-10T18:09:37Z</time>
      </trkpt>
      <trkpt lat="56.8913499695" lon="14.8230464921">
        <ele>172.4</ele>
        <time>2020-03-10T18:09:44Z</time>
      </trkpt>
      <trkpt lat="56.891547866159" lon="14.823039535123">
        <ele>173</ele>
        <time>2020-03-10T18:09:52Z</time>
      </trkpt>
      <trkpt lat="56.891725646258" lon="14.822990501008">
        <ele>172.6</ele>
        <time>2020-03-10T18:09:59Z</time>
      </trkpt>
      <trkpt lat="56.891910131877" lon="14.82294088016">
        <ele>172.2</ele>
        <time>2020-03-10T18:10:06Z</time>
      </trkpt>
      <trkpt lat="56.892060503163" lon="14.822893187149">
        <ele>172.2</ele>
        <time>2020-03-10T18:10:12Z</time>
      </trkpt>
      <trkpt lat="56.892241133108" lon="14.822858821359">
        <ele>171.8</ele>
        <time>2020-03-10T18:10:19Z</time>
      </trkpt>
      <trkpt lat="56.892438023939" lon="14.822810625434">
        <ele>171.2</ele>
        <time>2020-03-10T18:10:27Z</time>
      </trkpt>
      <trkpt lat="56.892629382716" lon="14.82279587329">
        <ele>171</ele>
        <time>2020-03-10T18:10:35Z</time>
      </trkpt>
      <trkpt lat="56.892811102308" lon="14.822801824439">
        <ele>170.8</ele>
        <time>2020-03-10T18:10:42Z</time>
      </trkpt>
      <trkpt lat="56.892965916001" lon="14.822790676512">
        <ele>170.2</ele>
        <time>2020-03-10T18:10:48Z</time>
      </trkpt>
      <trkpt lat="56.893168338886" lon="14.822794783643">
        <ele>169.8</ele>
        <time>2020-03-10T18:10:56Z</time>
      </trkpt>
      <trkpt lat="56.893364642984" lon="14.822776678739">
        <ele>170</ele>
        <time>2020-03-10T18:11:04Z</time>
      </trkpt>
      <trkpt lat="56.893569664258" lon="14.822777014015">
        <ele>169.6</ele>
        <time>2020-03-10T18:11:12Z</time>
      </trkpt>
      <trkpt lat="56.893762950872" lon="14.822777768386">
        <ele>169.4</ele>
        <time>2020-03-10T18:11:20Z</time>
      </trkpt>
      <trkpt lat="56.893956908038" lon="14.822851864382">
        <ele>169.8</ele>
        <time>2020-03-10T18:11:28Z</time>
      </trkpt>
      <trkpt lat="56.894125803323" lon="14.822995613967">
        <ele>169.8</ele>
        <time>2020-03-10T18:11:35Z</time>
      </trkpt>
      <trkpt lat="56.894283802138" lon="14.823233240832">
        <ele>169.6</ele>
        <time>2020-03-10T18:11:43Z</time>
      </trkpt>
      <trkpt lat="56.894300649757" lon="14.823269534459">
        <ele>169.6</ele>
        <time>2020-03-10T18:11:44Z</time>
      </trkpt>
      <trkpt lat="56.894426881171" lon="14.823533145214">
        <ele>169.6</ele>
        <time>2020-03-10T18:11:51Z</time>
      </trkpt>
      <trkpt lat="56.89453341512" lon="14.8238008631">
        <ele>169.6</ele>
        <time>2020-03-10T18:11:58Z</time>
      </trkpt>
      <trkpt lat="56.89464573258" lon="14.824093642867">
        <ele>169.8</ele>
        <time>2020-03-10T18:12:04Z</time>
      </trkpt>
      <trkpt lat="56.894735670367" lon="14.824381812589">
        <ele>170</ele>
        <time>2020-03-10T18:12:11Z</time>
      </trkpt>
      <trkpt lat="56.894822842127" lon="14.82470359373">
        <ele>169.6</ele>
        <time>2020-03-10T18:12:19Z</time>
      </trkpt>
      <trkpt lat="56.894922754375" lon="14.825003246655">
        <ele>170</ele>
        <time>2020-03-10T18:12:27Z</time>
      </trkpt>
      <trkpt lat="56.894996096" lon="14.82519644945">
        <ele>170.2</ele>
        <time>2020-03-10T18:12:32Z</time>
      </trkpt>
      <trkpt lat="56.895113610238" lon="14.825453019409">
        <ele>169.6</ele>
        <time>2020-03-10T18:12:39Z</time>
      </trkpt>
      <trkpt lat="56.895236824168" lon="14.825701626563">
        <ele>169.6</ele>
        <time>2020-03-10T18:12:46Z</time>
      </trkpt>
      <trkpt lat="56.895373113862" lon="14.825969512087">
        <ele>169.8</ele>
        <time>2020-03-10T18:12:54Z</time>
      </trkpt>
      <trkpt lat="56.895515187067" lon="14.826201523079">
        <ele>170.2</ele>
        <time>2020-03-10T18:13:02Z</time>
      </trkpt>
      <trkpt lat="56.895675113719" lon="14.826395312607">
        <ele>169.4</ele>
        <time>2020-03-10T18:13:10Z</time>
      </trkpt>
      <trkpt lat="56.895737391236" lon="14.826452477165">
        <ele>169.2</ele>
        <time>2020-03-10T18:13:13Z</time>
      </trkpt>
      <trkpt lat="56.895783072591" lon="14.826482568186">
        <ele>169</ele>
        <time>2020-03-10T18:13:15Z</time>
      </trkpt>
      <trkpt lat="56.895967222934" lon="14.826561693322">
        <ele>169.2</ele>
        <time>2020-03-10T18:13:23Z</time>
      </trkpt>
      <trkpt lat="56.896152630562" lon="14.826560519856">
        <ele>169.2</ele>
        <time>2020-03-10T18:13:30Z</time>
      </trkpt>
      <trkpt lat="56.896336948543" lon="14.826480053616">
        <ele>169</ele>
        <time>2020-03-10T18:13:37Z</time>
      </trkpt>
      <trkpt lat="56.896511459701" lon="14.826330269063">
        <ele>169.2</ele>
        <time>2020-03-10T18:13:44Z</time>
      </trkpt>
      <trkpt lat="56.896665183747" lon="14.826129522558">
        <ele>169.2</ele>
        <time>2020-03-10T18:13:51Z</time>
      </trkpt>
      <trkpt lat="56.896800383794" lon="14.825912850443">
        <ele>169.4</ele>
        <time>2020-03-10T18:13:58Z</time>
      </trkpt>
      <trkpt lat="56.896984869413" lon="14.825766837745">
        <ele>169.2</ele>
        <time>2020-03-10T18:14:06Z</time>
      </trkpt>
      <trkpt lat="56.897125685333" lon="14.825746721185">
        <ele>169.4</ele>
        <time>2020-03-10T18:14:12Z</time>
      </trkpt>
      <trkpt lat="56.897299023025" lon="14.825839676456">
        <ele>169.4</ele>
        <time>2020-03-10T18:14:19Z</time>
      </trkpt>
      <trkpt lat="56.897460458419" lon="14.826028185387">
        <ele>169.4</ele>
        <time>2020-03-10T18:14:26Z</time>
      </trkpt>
      <trkpt lat="56.897621055623" lon="14.826218622155">
        <ele>169.4</ele>
        <time>2020-03-10T18:14:33Z</time>
      </trkpt>
      <trkpt lat="56.897787687795" lon="14.826401012299">
        <ele>169.2</ele>
        <time>2020-03-10T18:14:41Z</time>
      </trkpt>
      <trkpt lat="56.897948117361" lon="14.826558005286">
        <ele>168.8</ele>
        <time>2020-03-10T18:14:48Z</time>
      </trkpt>
      <trkpt lat="56.898119443397" lon="14.826715417368">
        <ele>169.4</ele>
        <time>2020-03-10T18:14:55Z</time>
      </trkpt>
      <trkpt lat="56.898300157161" lon="14.826879702608">
        <ele>169.2</ele>
        <time>2020-03-10T18:15:03Z</time>
      </trkpt>
      <trkpt lat="56.898474081586" lon="14.827082963683">
        <ele>168.6</ele>
        <time>2020-03-10T18:15:10Z</time>
      </trkpt>
      <trkpt lat="56.898633756781" lon="14.827300557807">
        <ele>168.8</ele>
        <time>2020-03-10T18:15:17Z</time>
      </trkpt>
      <trkpt lat="56.898780440031" lon="14.827553188273">
        <ele>169.4</ele>
        <time>2020-03-10T18:15:25Z</time>
      </trkpt>
      <trkpt lat="56.898917567915" lon="14.827803304169">
        <ele>169.4</ele>
        <time>2020-03-10T18:15:32Z</time>
      </trkpt>
      <trkpt lat="56.899034076325" lon="14.828074039539">
        <ele>168.2</ele>
        <time>2020-03-10T18:15:39Z</time>
      </trkpt>
      <trkpt lat="56.899045643347" lon="14.828118547428">
        <ele>168.2</ele>
        <time>2020-03-10T18:15:40Z</time>
      </trkpt>
      <trkpt lat="56.899132144555" lon="14.828466396278">
        <ele>168.6</ele>
        <time>2020-03-10T18:15:48Z</time>
      </trkpt>
      <trkpt lat="56.899164750146" lon="14.828527751786">
        <ele>168.6</ele>
        <time>2020-03-10T18:15:50Z</time>
      </trkpt>
      <trkpt lat="56.89921805903" lon="14.828849365289">
        <ele>169</ele>
        <time>2020-03-10T18:15:56Z</time>
      </trkpt>
      <trkpt lat="56.899381673718" lon="14.829045082654">
        <ele>169</ele>
        <time>2020-03-10T18:16:04Z</time>
      </trkpt>
      <trkpt lat="56.899573116314" lon="14.82911750227">
        <ele>169</ele>
        <time>2020-03-10T18:16:12Z</time>
      </trkpt>
      <trkpt lat="56.899761960521" lon="14.829182294357">
        <ele>169.2</ele>
        <time>2020-03-10T18:16:20Z</time>
      </trkpt>
      <trkpt lat="56.899934543842" lon="14.829347333968">
        <ele>169.6</ele>
        <time>2020-03-10T18:16:28Z</time>
      </trkpt>
      <trkpt lat="56.900048789139" lon="14.829532322501">
        <ele>170.2</ele>
        <time>2020-03-10T18:16:33Z</time>
      </trkpt>
      <trkpt lat="56.90019035943" lon="14.829780929655">
        <ele>170.8</ele>
        <time>2020-03-10T18:16:39Z</time>
      </trkpt>
      <trkpt lat="56.900303682718" lon="14.830069015558">
        <ele>170.8</ele>
        <time>2020-03-10T18:16:46Z</time>
      </trkpt>
      <trkpt lat="56.900386412071" lon="14.830346959362">
        <ele>171.2</ele>
        <time>2020-03-10T18:16:52Z</time>
      </trkpt>
      <trkpt lat="56.90045690385" lon="14.830599003095">
        <ele>171.2</ele>
        <time>2020-03-10T18:16:58Z</time>
      </trkpt>
      <trkpt lat="56.900508368716" lon="14.830941571348">
        <ele>171.2</ele>
        <time>2020-03-10T18:17:05Z</time>
      </trkpt>
      <trkpt lat="56.900558241021" lon="14.831302998876">
        <ele>171.8</ele>
        <time>2020-03-10T18:17:13Z</time>
      </trkpt>
      <trkpt lat="56.900620602357" lon="14.831645902405">
        <ele>171.4</ele>
        <time>2020-03-10T18:17:21Z</time>
      </trkpt>
      <trkpt lat="56.900734177102" lon="14.831958547275">
        <ele>171.6</ele>
        <time>2020-03-10T18:17:28Z</time>
      </trkpt>
      <trkpt lat="56.900813469876" lon="14.832293152723">
        <ele>171.6</ele>
        <time>2020-03-10T18:17:35Z</time>
      </trkpt>
      <trkpt lat="56.900913633581" lon="14.832614850045">
        <ele>172.2</ele>
        <time>2020-03-10T18:17:42Z</time>
      </trkpt>
      <trkpt lat="56.900978509487" lon="14.83295473609">
        <ele>171.6</ele>
        <time>2020-03-10T18:17:49Z</time>
      </trkpt>
      <trkpt lat="56.901037434244" lon="14.833310631564">
        <ele>171.6</ele>
        <time>2020-03-10T18:17:57Z</time>
      </trkpt>
      <trkpt lat="56.901096191363" lon="14.833630149592">
        <ele>171.4</ele>
        <time>2020-03-10T18:18:04Z</time>
      </trkpt>
      <trkpt lat="56.901121001787" lon="14.833805331302">
        <ele>171.6</ele>
        <time>2020-03-10T18:18:09Z</time>
      </trkpt>
      <trkpt lat="56.901111949335" lon="14.833872051226">
        <ele>171.6</ele>
        <time>2020-03-10T18:18:11Z</time>
      </trkpt>
      <trkpt lat="56.901073644052" lon="14.834098781621">
        <ele>172.2</ele>
        <time>2020-03-10T18:18:18Z</time>
      </trkpt>
      <trkpt lat="56.901056293519" lon="14.834181343336">
        <ele>171.8</ele>
        <time>2020-03-10T18:18:22Z</time>
      </trkpt>
      <trkpt lat="56.901068279636" lon="14.834237669704">
        <ele>171.6</ele>
        <time>2020-03-10T18:18:25Z</time>
      </trkpt>
      <trkpt lat="56.901090743128" lon="14.834074222654">
        <ele>171</ele>
        <time>2020-03-10T18:24:25Z</time>
      </trkpt>
      <trkpt lat="56.901093676793" lon="14.834123675864">
        <ele>174.2</ele>
        <time>2020-03-10T18:24:30Z</time>
      </trkpt>
      <trkpt lat="56.901095101716" lon="14.83415418598">
        <ele>174</ele>
        <time>2020-03-10T18:24:34Z</time>
      </trkpt>
      <trkpt lat="56.901063166677" lon="14.834196179299">
        <ele>173</ele>
        <time>2020-03-10T18:24:40Z</time>
      </trkpt>
      <trkpt lat="56.901042966298" lon="14.834214787117">
        <ele>171.8</ele>
        <time>2020-03-10T18:24:43Z</time>
      </trkpt>
      <trkpt lat="56.901027040688" lon="14.834247644165">
        <ele>171.8</ele>
        <time>2020-03-10T18:24:45Z</time>
      </trkpt>
      <trkpt lat="56.900999883332" lon="14.834281423222">
        <ele>172.8</ele>
        <time>2020-03-10T18:24:48Z</time>
      </trkpt>
      <trkpt lat="56.900984376817" lon="14.8342950019">
        <ele>173.2</ele>
        <time>2020-03-10T18:24:50Z</time>
      </trkpt>
      <trkpt lat="56.900976078736" lon="14.834299779583">
        <ele>173.4</ele>
        <time>2020-03-10T18:24:52Z</time>
      </trkpt>
      <trkpt lat="56.900952944692" lon="14.834295756271">
        <ele>173.4</ele>
        <time>2020-03-10T18:24:55Z</time>
      </trkpt>
      <trkpt lat="56.900912124839" lon="14.834275472073">
        <ele>172.2</ele>
        <time>2020-03-10T18:25:00Z</time>
      </trkpt>
      <trkpt lat="56.900913046848" lon="14.834244626681">
        <ele>172.2</ele>
        <time>2020-03-10T18:25:03Z</time>
      </trkpt>
      <trkpt lat="56.901093341517" lon="14.834108839901">
        <ele>172.2</ele>
        <time>2020-03-10T18:25:13Z</time>
      </trkpt>
      <trkpt lat="56.901116727018" lon="14.834072965369">
        <ele>172.2</ele>
        <time>2020-03-10T18:25:17Z</time>
      </trkpt>
      <trkpt lat="56.901090994585" lon="14.83425057783">
        <ele>172.8</ele>
        <time>2020-03-10T18:25:34Z</time>
      </trkpt>
      <trkpt lat="56.901074398423" lon="14.83426398887">
        <ele>173.6</ele>
        <time>2020-03-10T18:25:36Z</time>
      </trkpt>
      <trkpt lat="56.901045564687" lon="14.834271951675">
        <ele>172.6</ele>
        <time>2020-03-10T18:25:40Z</time>
      </trkpt>
      <trkpt lat="56.900982281342" lon="14.834328613319">
        <ele>172.6</ele>
        <time>2020-03-10T18:25:50Z</time>
      </trkpt>
      <trkpt lat="56.900953028511" lon="14.834382341298">
        <ele>172.8</ele>
        <time>2020-03-10T18:25:53Z</time>
      </trkpt>
      <trkpt lat="56.900926374069" lon="14.834367672973">
        <ele>172.8</ele>
        <time>2020-03-10T18:25:57Z</time>
      </trkpt>
      <trkpt lat="56.900906844242" lon="14.8343452933">
        <ele>173</ele>
        <time>2020-03-10T18:25:59Z</time>
      </trkpt>
      <trkpt lat="56.900963841162" lon="14.834280333575">
        <ele>172.8</ele>
        <time>2020-03-10T18:26:03Z</time>
      </trkpt>
      <trkpt lat="56.901055036234" lon="14.834168686667">
        <ele>171.8</ele>
        <time>2020-03-10T18:26:08Z</time>
      </trkpt>
      <trkpt lat="56.90107129712" lon="14.834153263971">
        <ele>170.4</ele>
        <time>2020-03-10T18:26:09Z</time>
      </trkpt>
      <trkpt lat="56.901116475561" lon="14.834098194888">
        <ele>170.6</ele>
        <time>2020-03-10T18:26:13Z</time>
      </trkpt>
      <trkpt lat="56.901121504701" lon="14.834083023649">
        <ele>172.2</ele>
        <time>2020-03-10T18:26:15Z</time>
      </trkpt>
      <trkpt lat="56.901092000413" lon="14.834160556224">
        <ele>173</ele>
        <time>2020-03-10T18:26:34Z</time>
      </trkpt>
      <trkpt lat="56.901077332088" lon="14.83416759702">
        <ele>173.4</ele>
        <time>2020-03-10T18:26:35Z</time>
      </trkpt>
      <trkpt lat="56.901063585772" lon="14.834172793798">
        <ele>173.4</ele>
        <time>2020-03-10T18:26:36Z</time>
      </trkpt>
      <trkpt lat="56.901022849738" lon="14.834196430756">
        <ele>171.8</ele>
        <time>2020-03-10T18:26:39Z</time>
      </trkpt>
      <trkpt lat="56.901008516689" lon="14.834207746321">
        <ele>173</ele>
        <time>2020-03-10T18:26:40Z</time>
      </trkpt>
      <trkpt lat="56.900957806194" lon="14.834256696617">
        <ele>174.4</ele>
        <time>2020-03-10T18:26:43Z</time>
      </trkpt>
      <trkpt lat="56.900878932515" lon="14.834299863402">
        <ele>173.8</ele>
        <time>2020-03-10T18:26:48Z</time>
      </trkpt>
      <trkpt lat="56.900838699395" lon="14.834309502587">
        <ele>173.2</ele>
        <time>2020-03-10T18:26:52Z</time>
      </trkpt>
      <trkpt lat="56.900824953079" lon="14.834306401284">
        <ele>173</ele>
        <time>2020-03-10T18:26:54Z</time>
      </trkpt>
      <trkpt lat="56.900866694941" lon="14.834235658048">
        <ele>172.8</ele>
        <time>2020-03-10T18:27:02Z</time>
      </trkpt>
      <trkpt lat="56.90103190219" lon="14.834082688373">
        <ele>172.6</ele>
        <time>2020-03-10T18:27:12Z</time>
      </trkpt>
      <trkpt lat="56.901095688449" lon="14.834031558783">
        <ele>172.6</ele>
        <time>2020-03-10T18:27:17Z</time>
      </trkpt>
      <trkpt lat="56.899919791698" lon="14.834935798155">
        <ele>172.4</ele>
        <time>2020-03-10T18:30:29Z</time>
      </trkpt>
      <trkpt lat="56.90004954351" lon="14.834791294199">
        <ele>174</ele>
        <time>2020-03-10T18:30:33Z</time>
      </trkpt>
      <trkpt lat="56.900081059454" lon="14.834765813223">
        <ele>175</ele>
        <time>2020-03-10T18:30:34Z</time>
      </trkpt>
      <trkpt lat="56.900248445997" lon="14.834631786642">
        <ele>174.6</ele>
        <time>2020-03-10T18:30:42Z</time>
      </trkpt>
      <trkpt lat="56.900412060685" lon="14.834513350395">
        <ele>175.2</ele>
        <time>2020-03-10T18:30:49Z</time>
      </trkpt>
      <trkpt lat="56.900587912947" lon="14.834434476716">
        <ele>174.2</ele>
        <time>2020-03-10T18:30:56Z</time>
      </trkpt>
      <trkpt lat="56.90060777805" lon="14.834425927178">
        <ele>174.2</ele>
        <time>2020-03-10T18:30:57Z</time>
      </trkpt>
      <trkpt lat="56.90077876881" lon="14.834290056579">
        <ele>174.2</ele>
        <time>2020-03-10T18:31:02Z</time>
      </trkpt>
      <trkpt lat="56.900836687739" lon="14.834243620853">
        <ele>172.8</ele>
        <time>2020-03-10T18:31:05Z</time>
      </trkpt>
      <trkpt lat="56.900905586957" lon="14.834195424928">
        <ele>173.2</ele>
        <time>2020-03-10T18:31:10Z</time>
      </trkpt>
      <trkpt lat="56.900943724602" lon="14.834160304767">
        <ele>173</ele>
        <time>2020-03-10T18:31:15Z</time>
      </trkpt>
      <trkpt lat="56.900998626047" lon="14.834025020901">
        <ele>172.2</ele>
        <time>2020-03-10T18:31:53Z</time>
      </trkpt>
      <trkpt lat="56.900938108729" lon="14.833754620807">
        <ele>171.8</ele>
        <time>2020-03-10T18:31:58Z</time>
      </trkpt>
      <trkpt lat="56.900800226474" lon="14.83348782493">
        <ele>171</ele>
        <time>2020-03-10T18:32:05Z</time>
      </trkpt>
      <trkpt lat="56.900714563456" lon="14.833394366745">
        <ele>171.2</ele>
        <time>2020-03-10T18:32:10Z</time>
      </trkpt>
      <trkpt lat="56.900728812686" lon="14.833739449568">
        <ele>171</ele>
        <time>2020-03-10T18:32:17Z</time>
      </trkpt>
      <trkpt lat="56.900720598424" lon="14.834017225734">
        <ele>172.2</ele>
        <time>2020-03-10T18:32:23Z</time>
      </trkpt>
      <trkpt lat="56.900669887929" lon="14.834348310784">
        <ele>172</ele>
        <time>2020-03-10T18:32:30Z</time>
      </trkpt>
      <trkpt lat="56.900502249929" lon="14.834527096711">
        <ele>172.8</ele>
        <time>2020-03-10T18:32:38Z</time>
      </trkpt>
      <trkpt lat="56.900474002926" lon="14.834556349542">
        <ele>173</ele>
        <time>2020-03-10T18:32:39Z</time>
      </trkpt>
      <trkpt lat="56.900452126167" lon="14.834570012039">
        <ele>173</ele>
        <time>2020-03-10T18:32:40Z</time>
      </trkpt>
      <trkpt lat="56.900267053815" lon="14.83468308387">
        <ele>173.4</ele>
        <time>2020-03-10T18:32:47Z</time>
      </trkpt>
      <trkpt lat="56.900073348106" lon="14.83480210685">
        <ele>173</ele>
        <time>2020-03-10T18:32:54Z</time>
      </trkpt>
      <trkpt lat="56.899917444766" lon="14.834960860036">
        <ele>172.2</ele>
        <time>2020-03-10T18:33:02Z</time>
      </trkpt>
      <trkpt lat="56.899879642397" lon="14.835019365698">
        <ele>173</ele>
        <time>2020-03-10T18:33:05Z</time>
      </trkpt>
      <trkpt lat="56.8998408342" lon="14.835092791142">
        <ele>173.6</ele>
        <time>2020-03-10T18:33:10Z</time>
      </trkpt>
      <trkpt lat="56.899829770092" lon="14.835110309313">
        <ele>173.6</ele>
        <time>2020-03-10T18:33:11Z</time>
      </trkpt>
      <trkpt lat="56.899827004065" lon="14.83513905923">
        <ele>173.6</ele>
        <time>2020-03-10T18:33:13Z</time>
      </trkpt>
      <trkpt lat="56.89981485031" lon="14.835177029237">
        <ele>173.8</ele>
        <time>2020-03-10T18:33:17Z</time>
      </trkpt>
      <trkpt lat="56.89981065936" lon="14.835188260983">
        <ele>173.8</ele>
        <time>2020-03-10T18:33:18Z</time>
      </trkpt>
      <trkpt lat="56.899805714039" lon="14.835204354231">
        <ele>173.8</ele>
        <time>2020-03-10T18:33:20Z</time>
      </trkpt>
      <trkpt lat="56.899793811741" lon="14.83523712746">
        <ele>173.6</ele>
        <time>2020-03-10T18:33:25Z</time>
      </trkpt>
      <trkpt lat="56.899791883904" lon="14.835247101921">
        <ele>173.6</ele>
        <time>2020-03-10T18:33:26Z</time>
      </trkpt>
      <trkpt lat="56.899863968244" lon="14.835206449706">
        <ele>173.6</ele>
        <time>2020-03-10T18:33:38Z</time>
      </trkpt>
      <trkpt lat="56.89988693465" lon="14.83515917579">
        <ele>173.6</ele>
        <time>2020-03-10T18:33:40Z</time>
      </trkpt>
      <trkpt lat="56.899993636237" lon="14.834863043263">
        <ele>171.2</ele>
        <time>2020-03-10T18:33:51Z</time>
      </trkpt>
      <trkpt lat="56.900088351707" lon="14.834768914526">
        <ele>172.8</ele>
        <time>2020-03-10T18:33:55Z</time>
      </trkpt>
      <trkpt lat="56.900258336639" lon="14.834670846296">
        <ele>172.4</ele>
        <time>2020-03-10T18:34:01Z</time>
      </trkpt>
      <trkpt lat="56.900412060685" lon="14.834580573233">
        <ele>173.4</ele>
        <time>2020-03-10T18:34:07Z</time>
      </trkpt>
      <trkpt lat="56.900474924935" lon="14.834552829144">
        <ele>174</ele>
        <time>2020-03-10T18:34:10Z</time>
      </trkpt>
      <trkpt lat="56.900651950663" lon="14.834430537223">
        <ele>174</ele>
        <time>2020-03-10T18:34:18Z</time>
      </trkpt>
      <trkpt lat="56.900824953079" lon="14.834320399057">
        <ele>174.4</ele>
        <time>2020-03-10T18:34:24Z</time>
      </trkpt>
      <trkpt lat="56.900967864474" lon="14.834125771339">
        <ele>174</ele>
        <time>2020-03-10T18:34:44Z</time>
      </trkpt>
      <trkpt lat="56.900993680726" lon="14.833911865251">
        <ele>173.8</ele>
        <time>2020-03-10T18:35:10Z</time>
      </trkpt>
      <trkpt lat="56.900863509819" lon="14.83363534637">
        <ele>173.2</ele>
        <time>2020-03-10T18:35:18Z</time>
      </trkpt>
      <trkpt lat="56.900827886744" lon="14.833591257576">
        <ele>172.8</ele>
        <time>2020-03-10T18:35:20Z</time>
      </trkpt>
      <trkpt lat="56.900684388616" lon="14.833381877714">
        <ele>173.2</ele>
        <time>2020-03-10T18:35:31Z</time>
      </trkpt>
      <trkpt lat="56.900725040831" lon="14.833600729123">
        <ele>173</ele>
        <time>2020-03-10T18:35:48Z</time>
      </trkpt>
      <trkpt lat="56.900743313373" lon="14.833682117372">
        <ele>173.2</ele>
        <time>2020-03-10T18:35:50Z</time>
      </trkpt>
      <trkpt lat="56.900776086602" lon="14.834055028103">
        <ele>172.6</ele>
        <time>2020-03-10T18:35:58Z</time>
      </trkpt>
      <trkpt lat="56.900678018372" lon="14.834368427344">
        <ele>172.6</ele>
        <time>2020-03-10T18:36:04Z</time>
      </trkpt>
      <trkpt lat="56.90051473896" lon="14.834518463354">
        <ele>173.4</ele>
        <time>2020-03-10T18:36:11Z</time>
      </trkpt>
      <trkpt lat="56.900450785063" lon="14.834557606827">
        <ele>174</ele>
        <time>2020-03-10T18:36:13Z</time>
      </trkpt>
      <trkpt lat="56.900333522282" lon="14.834637653972">
        <ele>172.6</ele>
        <time>2020-03-10T18:36:18Z</time>
      </trkpt>
      <trkpt lat="56.900239393545" lon="14.834689370295">
        <ele>172</ele>
        <time>2020-03-10T18:36:22Z</time>
      </trkpt>
      <trkpt lat="56.900058344505" lon="14.834820463211">
        <ele>172.4</ele>
        <time>2020-03-10T18:36:30Z</time>
      </trkpt>
      <trkpt lat="56.899951726737" lon="14.834892715189">
        <ele>171.4</ele>
        <time>2020-03-10T18:36:35Z</time>
      </trkpt>
      <trkpt lat="56.899852820317" lon="14.835009726513">
        <ele>172.4</ele>
        <time>2020-03-10T18:36:41Z</time>
      </trkpt>
      <trkpt lat="56.899832033205" lon="14.83506194575">
        <ele>172.8</ele>
        <time>2020-03-10T18:36:44Z</time>
      </trkpt>
      <trkpt lat="56.899831195015" lon="14.835077703722">
        <ele>172.8</ele>
        <time>2020-03-10T18:36:48Z</time>
      </trkpt>
      <trkpt lat="56.899919707879" lon="14.834975779818">
        <ele>173.4</ele>
        <time>2020-03-10T18:37:22Z</time>
      </trkpt>
      <trkpt lat="56.900081478549" lon="14.834796993891">
        <ele>174.2</ele>
        <time>2020-03-10T18:37:28Z</time>
      </trkpt>
      <trkpt lat="56.900185246471" lon="14.834728849044">
        <ele>174.6</ele>
        <time>2020-03-10T18:37:31Z</time>
      </trkpt>
      <trkpt lat="56.900200333891" lon="14.834721137696">
        <ele>174.6</ele>
        <time>2020-03-10T18:37:32Z</time>
      </trkpt>
      <trkpt lat="56.900374677411" lon="14.834581243785">
        <ele>175</ele>
        <time>2020-03-10T18:37:38Z</time>
      </trkpt>
      <trkpt lat="56.900422705698" lon="14.834562300691">
        <ele>173.4</ele>
        <time>2020-03-10T18:37:40Z</time>
      </trkpt>
      <trkpt lat="56.900562180514" lon="14.834489210523">
        <ele>174.6</ele>
        <time>2020-03-10T18:37:45Z</time>
      </trkpt>
      <trkpt lat="56.900758233155" lon="14.834382928031">
        <ele>174.4</ele>
        <time>2020-03-10T18:37:51Z</time>
      </trkpt>
      <trkpt lat="56.900923188947" lon="14.834212524004">
        <ele>174.4</ele>
        <time>2020-03-10T18:38:03Z</time>
      </trkpt>
      <trkpt lat="56.900930648838" lon="14.834218810429">
        <ele>174.4</ele>
        <time>2020-03-10T18:38:04Z</time>
      </trkpt>
      <trkpt lat="56.900932492856" lon="14.834235406591">
        <ele>174.4</ele>
        <time>2020-03-10T18:38:06Z</time>
      </trkpt>
      <trkpt lat="56.900931906123" lon="14.834260217015">
        <ele>173.6</ele>
        <time>2020-03-10T18:38:11Z</time>
      </trkpt>
      <trkpt lat="56.900947747914" lon="14.834251332201">
        <ele>172.6</ele>
        <time>2020-03-10T18:38:25Z</time>
      </trkpt>
      <trkpt lat="56.900997452581" lon="14.834272622227">
        <ele>173.6</ele>
        <time>2020-03-10T18:38:44Z</time>
      </trkpt>
      <trkpt lat="56.901012037087" lon="14.834107582616">
        <ele>174.2</ele>
        <time>2020-03-10T18:38:49Z</time>
      </trkpt>
      <trkpt lat="56.900978509487" lon="14.833959809719">
        <ele>174.6</ele>
        <time>2020-03-10T18:38:53Z</time>
      </trkpt>
      <trkpt lat="56.900873987194" lon="14.833676250042">
        <ele>173.6</ele>
        <time>2020-03-10T18:39:00Z</time>
      </trkpt>
      <trkpt lat="56.900853786815" lon="14.833644482641">
        <ele>173.6</ele>
        <time>2020-03-10T18:39:01Z</time>
      </trkpt>
      <trkpt lat="56.900725627564" lon="14.833394115288">
        <ele>173.2</ele>
        <time>2020-03-10T18:39:12Z</time>
      </trkpt>
      <trkpt lat="56.900707103565" lon="14.833373160538">
        <ele>173.2</ele>
        <time>2020-03-10T18:39:15Z</time>
      </trkpt>
      <trkpt lat="56.90070333171" lon="14.833410292355">
        <ele>173.2</ele>
        <time>2020-03-10T18:39:18Z</time>
      </trkpt>
      <trkpt lat="56.900725040831" lon="14.8335406309">
        <ele>173.4</ele>
        <time>2020-03-10T18:39:23Z</time>
      </trkpt>
      <trkpt lat="56.900738787147" lon="14.833922342626">
        <ele>173.4</ele>
        <time>2020-03-10T18:39:30Z</time>
      </trkpt>
      <trkpt lat="56.900718586768" lon="14.834228114338">
        <ele>173.4</ele>
        <time>2020-03-10T18:39:35Z</time>
      </trkpt>
      <trkpt lat="56.900677850734" lon="14.834336492305">
        <ele>172.6</ele>
        <time>2020-03-10T18:39:38Z</time>
      </trkpt>
      <trkpt lat="56.900528736733" lon="14.834505974323">
        <ele>173.4</ele>
        <time>2020-03-10T18:39:46Z</time>
      </trkpt>
      <trkpt lat="56.900474002926" lon="14.834557103913">
        <ele>173.6</ele>
        <time>2020-03-10T18:39:48Z</time>
      </trkpt>
      <trkpt lat="56.900428573028" lon="14.834591302065">
        <ele>173.8</ele>
        <time>2020-03-10T18:39:50Z</time>
      </trkpt>
      <trkpt lat="56.900254397146" lon="14.834708564846">
        <ele>174.6</ele>
        <time>2020-03-10T18:39:56Z</time>
      </trkpt>
      <trkpt lat="56.900236543699" lon="14.834716695289">
        <ele>174.8</ele>
        <time>2020-03-10T18:39:57Z</time>
      </trkpt>
      <trkpt lat="56.900053902098" lon="14.834852314431">
        <ele>174.6</ele>
        <time>2020-03-10T18:40:05Z</time>
      </trkpt>
      <trkpt lat="56.899933705652" lon="14.834944766788">
        <ele>173.6</ele>
        <time>2020-03-10T18:40:12Z</time>
      </trkpt>
      <trkpt lat="56.899909649599" lon="14.8349739358">
        <ele>172.4</ele>
        <time>2020-03-10T18:40:14Z</time>
      </trkpt>
      <trkpt lat="56.899858352371" lon="14.835063203035">
        <ele>172</ele>
        <time>2020-03-10T18:40:21Z</time>
      </trkpt>
      <trkpt lat="56.899834380137" lon="14.835085498889">
        <ele>172.8</ele>
        <time>2020-03-10T18:40:25Z</time>
      </trkpt>
      <trkpt lat="56.899832619938" lon="14.835092623504">
        <ele>173.2</ele>
        <time>2020-03-10T18:40:27Z</time>
      </trkpt>
      <trkpt lat="56.899786435669" lon="14.835176442504">
        <ele>173.8</ele>
        <time>2020-03-10T18:40:34Z</time>
      </trkpt>
      <trkpt lat="56.899773359905" lon="14.835191362286">
        <ele>173.8</ele>
        <time>2020-03-10T18:40:36Z</time>
      </trkpt>
      <trkpt lat="56.899779478692" lon="14.835194463589">
        <ele>174.6</ele>
        <time>2020-03-10T18:41:01Z</time>
      </trkpt>
      <trkpt lat="56.899844103141" lon="14.835067477804">
        <ele>175</ele>
        <time>2020-03-10T18:41:05Z</time>
      </trkpt>
      <trkpt lat="56.899856843629" lon="14.835030262168">
        <ele>172.8</ele>
        <time>2020-03-10T18:41:06Z</time>
      </trkpt>
      <trkpt lat="56.89991794768" lon="14.834900342718">
        <ele>174.2</ele>
        <time>2020-03-10T18:41:10Z</time>
      </trkpt>
      <trkpt lat="56.899946194683" lon="14.834850973327">
        <ele>174</ele>
        <time>2020-03-10T18:41:13Z</time>
      </trkpt>
      <trkpt lat="56.900031606244" lon="14.834772267286">
        <ele>174.2</ele>
        <time>2020-03-10T18:41:26Z</time>
      </trkpt>
      <trkpt lat="56.900164626997" lon="14.834689202657">
        <ele>174.6</ele>
        <time>2020-03-10T18:41:30Z</time>
      </trkpt>
      <trkpt lat="56.900263449598" lon="14.834655004505">
        <ele>174.6</ele>
        <time>2020-03-10T18:41:35Z</time>
      </trkpt>
      <trkpt lat="56.900446426475" lon="14.834570012039">
        <ele>173</ele>
        <time>2020-03-10T18:41:41Z</time>
      </trkpt>
      <trkpt lat="56.900496969332" lon="14.834535981525">
        <ele>174</ele>
        <time>2020-03-10T18:41:43Z</time>
      </trkpt>
      <trkpt lat="56.900663433866" lon="14.834413019052">
        <ele>173.8</ele>
        <time>2020-03-10T18:41:49Z</time>
      </trkpt>
      <trkpt lat="56.90084330944" lon="14.834279243928">
        <ele>174.4</ele>
        <time>2020-03-10T18:41:55Z</time>
      </trkpt>
      <trkpt lat="56.900863677457" lon="14.834256277522">
        <ele>172.8</ele>
        <time>2020-03-10T18:41:56Z</time>
      </trkpt>
      <trkpt lat="56.900984795912" lon="14.834129627013">
        <ele>173.2</ele>
        <time>2020-03-10T18:42:07Z</time>
      </trkpt>
      <trkpt lat="56.900989405957" lon="14.834018231562">
        <ele>173.4</ele>
        <time>2020-03-10T18:42:32Z</time>
      </trkpt>
      <trkpt lat="56.900936516168" lon="14.833786807303">
        <ele>174.6</ele>
        <time>2020-03-10T18:42:38Z</time>
      </trkpt>
      <trkpt lat="56.900871304986" lon="14.833637358026">
        <ele>173.6</ele>
        <time>2020-03-10T18:42:42Z</time>
      </trkpt>
      <trkpt lat="56.90072261008" lon="14.83340484412">
        <ele>173.2</ele>
        <time>2020-03-10T18:42:50Z</time>
      </trkpt>
      <trkpt lat="56.90070500809" lon="14.833440299557">
        <ele>173.6</ele>
        <time>2020-03-10T18:42:52Z</time>
      </trkpt>
      <trkpt lat="56.90073099198" lon="14.833769708227">
        <ele>173.2</ele>
        <time>2020-03-10T18:42:58Z</time>
      </trkpt>
      <trkpt lat="56.900727303944" lon="14.833934664019">
        <ele>173.4</ele>
        <time>2020-03-10T18:43:01Z</time>
      </trkpt>
      <trkpt lat="56.900672653956" lon="14.834187126847">
        <ele>174</ele>
        <time>2020-03-10T18:43:06Z</time>
      </trkpt>
      <trkpt lat="56.900542231592" lon="14.834446630471">
        <ele>173.8</ele>
        <time>2020-03-10T18:43:15Z</time>
      </trkpt>
      <trkpt lat="56.900490012355" lon="14.834489210523">
        <ele>174.8</ele>
        <time>2020-03-10T18:43:18Z</time>
      </trkpt>
      <trkpt lat="56.900424549716" lon="14.834546375081">
        <ele>175</ele>
        <time>2020-03-10T18:43:21Z</time>
      </trkpt>
      <trkpt lat="56.900358081249" lon="14.834601360345">
        <ele>173.4</ele>
        <time>2020-03-10T18:43:23Z</time>
      </trkpt>
      <trkpt lat="56.900281135407" lon="14.834667493536">
        <ele>174.6</ele>
        <time>2020-03-10T18:43:26Z</time>
      </trkpt>
      <trkpt lat="56.900114838511" lon="14.834817361908">
        <ele>175</ele>
        <time>2020-03-10T18:43:36Z</time>
      </trkpt>
      <trkpt lat="56.900109557914" lon="14.834822474867">
        <ele>175</ele>
        <time>2020-03-10T18:43:37Z</time>
      </trkpt>
      <trkpt lat="56.900079466893" lon="14.834856924476">
        <ele>174.2</ele>
        <time>2020-03-10T18:43:40Z</time>
      </trkpt>
      <trkpt lat="56.899916019843" lon="14.835028082874">
        <ele>173.8</ele>
        <time>2020-03-10T18:43:55Z</time>
      </trkpt>
      <trkpt lat="56.899910487789" lon="14.835040907181">
        <ele>173.8</ele>
        <time>2020-03-10T18:43:56Z</time>
      </trkpt>
      <trkpt lat="56.899895484188" lon="14.835068315994">
        <ele>173.6</ele>
        <time>2020-03-10T18:43:58Z</time>
      </trkpt>
      <trkpt lat="56.899872098687" lon="14.83512983914">
        <ele>173.2</ele>
        <time>2020-03-10T18:44:01Z</time>
      </trkpt>
      <trkpt lat="56.899865728443" lon="14.835212317036">
        <ele>173.2</ele>
        <time>2020-03-10T18:44:03Z</time>
      </trkpt>
      <trkpt lat="56.899837649078" lon="14.835337877898">
        <ele>173.2</ele>
        <time>2020-03-10T18:44:08Z</time>
      </trkpt>
      <trkpt lat="56.899783753461" lon="14.835400155415">
        <ele>174.6</ele>
        <time>2020-03-10T18:44:18Z</time>
      </trkpt>
      <trkpt lat="56.899771683525" lon="14.835418763233">
        <ele>175.4</ele>
        <time>2020-03-10T18:44:20Z</time>
      </trkpt>
      <trkpt lat="56.89975617701" lon="14.835427731866">
        <ele>175.4</ele>
        <time>2020-03-10T18:44:22Z</time>
      </trkpt>
      <trkpt lat="56.899775706837" lon="14.835326981428">
        <ele>173.6</ele>
        <time>2020-03-10T18:44:30Z</time>
      </trkpt>
      <trkpt lat="56.899787776773" lon="14.835262440798">
        <ele>173.6</ele>
        <time>2020-03-10T18:44:32Z</time>
      </trkpt>
      <trkpt lat="56.899877379284" lon="14.835012743997">
        <ele>172.2</ele>
        <time>2020-03-10T18:44:39Z</time>
      </trkpt>
      <trkpt lat="56.899943344837" lon="14.834859522865">
        <ele>174</ele>
        <time>2020-03-10T18:44:44Z</time>
      </trkpt>
      <trkpt lat="56.899983997052" lon="14.834809147646">
        <ele>175.6</ele>
        <time>2020-03-10T18:44:46Z</time>
      </trkpt>
      <trkpt lat="56.900048202406" lon="14.834749468518">
        <ele>175.4</ele>
        <time>2020-03-10T18:44:49Z</time>
      </trkpt>
      <trkpt lat="56.900246266703" lon="14.834611418625">
        <ele>175.6</ele>
        <time>2020-03-10T18:44:56Z</time>
      </trkpt>
      <trkpt lat="56.900300413777" lon="14.83460597039">
        <ele>175.4</ele>
        <time>2020-03-10T18:44:58Z</time>
      </trkpt>
      <trkpt lat="56.900473919107" lon="14.834497173328">
        <ele>175.6</ele>
        <time>2020-03-10T18:45:04Z</time>
      </trkpt>
      <trkpt lat="56.900628816619" lon="14.834450821421">
        <ele>175.6</ele>
        <time>2020-03-10T18:45:10Z</time>
      </trkpt>
      <trkpt lat="56.900795700248" lon="14.834306904198">
        <ele>175</ele>
        <time>2020-03-10T18:45:15Z</time>
      </trkpt>
      <trkpt lat="56.900818079921" lon="14.834306988017">
        <ele>174.4</ele>
        <time>2020-03-10T18:45:16Z</time>
      </trkpt>
      <trkpt lat="56.900880441257" lon="14.834269437105">
        <ele>174.8</ele>
        <time>2020-03-10T18:45:22Z</time>
      </trkpt>
      <trkpt lat="56.900919081816" lon="14.83426566525">
        <ele>174.8</ele>
        <time>2020-03-10T18:45:26Z</time>
      </trkpt>
      <trkpt lat="56.900960991316" lon="14.834193329453">
        <ele>172.4</ele>
        <time>2020-03-10T18:45:46Z</time>
      </trkpt>
      <trkpt lat="56.900979180039" lon="14.833948410335">
        <ele>172.2</ele>
        <time>2020-03-10T18:46:22Z</time>
      </trkpt>
      <trkpt lat="56.90084750039" lon="14.833690247815">
        <ele>172.8</ele>
        <time>2020-03-10T18:46:30Z</time>
      </trkpt>
      <trkpt lat="56.900713054714" lon="14.833472234596">
        <ele>172.8</ele>
        <time>2020-03-10T18:46:39Z</time>
      </trkpt>
      <trkpt lat="56.900699308398" lon="14.833448681457">
        <ele>173</ele>
        <time>2020-03-10T18:46:41Z</time>
      </trkpt>
      <trkpt lat="56.900693943982" lon="14.833445999249">
        <ele>173.4</ele>
        <time>2020-03-10T18:46:42Z</time>
      </trkpt>
      <trkpt lat="56.900696710009" lon="14.833504253454">
        <ele>174.4</ele>
        <time>2020-03-10T18:46:46Z</time>
      </trkpt>
      <trkpt lat="56.90071422818" lon="14.833890323768">
        <ele>173.4</ele>
        <time>2020-03-10T18:46:54Z</time>
      </trkpt>
      <trkpt lat="56.900654632871" lon="14.834238507894">
        <ele>174.2</ele>
        <time>2020-03-10T18:47:00Z</time>
      </trkpt>
      <trkpt lat="56.900587745309" lon="14.834373456484">
        <ele>173.8</ele>
        <time>2020-03-10T18:47:04Z</time>
      </trkpt>
      <trkpt lat="56.900491437278" lon="14.834480325709">
        <ele>174.4</ele>
        <time>2020-03-10T18:47:09Z</time>
      </trkpt>
      <trkpt lat="56.90040409788" lon="14.834551907135">
        <ele>175.4</ele>
        <time>2020-03-10T18:47:14Z</time>
      </trkpt>
      <trkpt lat="56.900239142088" lon="14.834706469371">
        <ele>176</ele>
        <time>2020-03-10T18:47:21Z</time>
      </trkpt>
      <trkpt lat="56.900122801316" lon="14.834825408532">
        <ele>176.6</ele>
        <time>2020-03-10T18:47:29Z</time>
      </trkpt>
      <trkpt lat="56.89993974062" lon="14.834909981903">
        <ele>176.2</ele>
        <time>2020-03-10T18:47:43Z</time>
      </trkpt>
      <trkpt lat="56.899905710106" lon="14.834929847006">
        <ele>175.6</ele>
        <time>2020-03-10T18:47:46Z</time>
      </trkpt>
      <trkpt lat="56.899801523089" lon="14.835035794222">
        <ele>175</ele>
        <time>2020-03-10T18:47:57Z</time>
      </trkpt>
      <trkpt lat="56.899788782601" lon="14.8350577548">
        <ele>175</ele>
        <time>2020-03-10T18:48:01Z</time>
      </trkpt>
      <trkpt lat="56.89978551366" lon="14.835071668754">
        <ele>175</ele>
        <time>2020-03-10T18:48:02Z</time>
      </trkpt>
      <trkpt lat="56.899793392646" lon="14.835140567972">
        <ele>175.4</ele>
        <time>2020-03-10T18:48:08Z</time>
      </trkpt>
      <trkpt lat="56.899789285515" lon="14.835152302632">
        <ele>175.4</ele>
        <time>2020-03-10T18:48:09Z</time>
      </trkpt>
      <trkpt lat="56.8997653971" lon="14.835185243499">
        <ele>175.2</ele>
        <time>2020-03-10T18:48:12Z</time>
      </trkpt>
      <trkpt lat="56.899760954693" lon="14.83517593959">
        <ele>175.2</ele>
        <time>2020-03-10T18:48:14Z</time>
      </trkpt>
      <trkpt lat="56.899769085136" lon="14.835138472497">
        <ele>175</ele>
        <time>2020-03-10T18:48:30Z</time>
      </trkpt>
      <trkpt lat="56.899820214726" lon="14.835053982945">
        <ele>175.2</ele>
        <time>2020-03-10T18:48:36Z</time>
      </trkpt>
      <trkpt lat="56.899849635195" lon="14.835002937174">
        <ele>175</ele>
        <time>2020-03-10T18:48:40Z</time>
      </trkpt>
      <trkpt lat="56.89989531655" lon="14.834933954137">
        <ele>175</ele>
        <time>2020-03-10T18:48:42Z</time>
      </trkpt>
      <trkpt lat="56.899967652347" lon="14.83481551789">
        <ele>174</ele>
        <time>2020-03-10T18:48:45Z</time>
      </trkpt>
      <trkpt lat="56.899997743368" lon="14.834775620046">
        <ele>172.2</ele>
        <time>2020-03-10T18:48:46Z</time>
      </trkpt>
      <trkpt lat="56.900147276464" lon="14.834665398061">
        <ele>173.8</ele>
        <time>2020-03-10T18:48:51Z</time>
      </trkpt>
      <trkpt lat="56.900203686651" lon="14.834644359492">
        <ele>172.4</ele>
        <time>2020-03-10T18:48:53Z</time>
      </trkpt>
      <trkpt lat="56.90038481951" lon="14.834540926846">
        <ele>172.2</ele>
        <time>2020-03-10T18:48:59Z</time>
      </trkpt>
      <trkpt lat="56.900578357581" lon="14.834442439521">
        <ele>172</ele>
        <time>2020-03-10T18:49:07Z</time>
      </trkpt>
      <trkpt lat="56.900753287834" lon="14.834322578351">
        <ele>172</ele>
        <time>2020-03-10T18:49:13Z</time>
      </trkpt>
      <trkpt lat="56.900880860352" lon="14.83423213765">
        <ele>171.4</ele>
        <time>2020-03-10T18:49:21Z</time>
      </trkpt>
      <trkpt lat="56.900909945545" lon="14.834223420474">
        <ele>171.2</ele>
        <time>2020-03-10T18:49:24Z</time>
      </trkpt>
      <trkpt lat="56.900941042394" lon="14.834175308368">
        <ele>171</ele>
        <time>2020-03-10T18:49:31Z</time>
      </trkpt>
      <trkpt lat="56.900958560565" lon="14.834168938124">
        <ele>170.8</ele>
        <time>2020-03-10T18:49:33Z</time>
      </trkpt>
      <trkpt lat="56.900975827279" lon="14.83416592064">
        <ele>170.6</ele>
        <time>2020-03-10T18:49:35Z</time>
      </trkpt>
      <trkpt lat="56.90105034237" lon="14.833999539925">
        <ele>170.4</ele>
        <time>2020-03-10T18:50:05Z</time>
      </trkpt>
      <trkpt lat="56.90103274038" lon="14.833966515239">
        <ele>170.4</ele>
        <time>2020-03-10T18:50:06Z</time>
      </trkpt>
      <trkpt lat="56.900905670776" lon="14.833718578637">
        <ele>170</ele>
        <time>2020-03-10T18:50:14Z</time>
      </trkpt>
      <trkpt lat="56.900753371653" lon="14.833483131066">
        <ele>169.6</ele>
        <time>2020-03-10T18:50:21Z</time>
      </trkpt>
      <trkpt lat="56.90070081714" lon="14.833407693966">
        <ele>169.4</ele>
        <time>2020-03-10T18:50:25Z</time>
      </trkpt>
      <trkpt lat="56.900702828796" lon="14.833597711639">
        <ele>169.4</ele>
        <time>2020-03-10T18:50:29Z</time>
      </trkpt>
      <trkpt lat="56.90070836085" lon="14.833948745611">
        <ele>169.6</ele>
        <time>2020-03-10T18:50:36Z</time>
      </trkpt>
      <trkpt lat="56.90062454185" lon="14.834266000526">
        <ele>170.2</ele>
        <time>2020-03-10T18:50:43Z</time>
      </trkpt>
      <trkpt lat="56.90058095597" lon="14.8343620571">
        <ele>170</ele>
        <time>2020-03-10T18:50:46Z</time>
      </trkpt>
      <trkpt lat="56.90040409788" lon="14.834537071172">
        <ele>171.4</ele>
        <time>2020-03-10T18:50:54Z</time>
      </trkpt>
      <trkpt lat="56.900386160614" lon="14.834556852456">
        <ele>171.4</ele>
        <time>2020-03-10T18:50:55Z</time>
      </trkpt>
      <trkpt lat="56.900226066324" lon="14.834718790764">
        <ele>171</ele>
        <time>2020-03-10T18:51:03Z</time>
      </trkpt>
      <trkpt lat="56.900189940335" lon="14.834761370816">
        <ele>171.2</ele>
        <time>2020-03-10T18:51:05Z</time>
      </trkpt>
      <trkpt lat="56.900197232588" lon="14.834726502112">
        <ele>171.2</ele>
        <time>2020-03-10T18:51:08Z</time>
      </trkpt>
      <trkpt lat="56.900182648082" lon="14.834685682259">
        <ele>171.2</ele>
        <time>2020-03-10T18:51:10Z</time>
      </trkpt>
      <trkpt lat="56.900062703093" lon="14.834829180387">
        <ele>171.2</ele>
        <time>2020-03-10T18:51:23Z</time>
      </trkpt>
      <trkpt lat="56.900003023965" lon="14.834920710735">
        <ele>171</ele>
        <time>2020-03-10T18:51:27Z</time>
      </trkpt>
      <trkpt lat="56.899865057891" lon="14.835063789768">
        <ele>170.2</ele>
        <time>2020-03-10T18:51:34Z</time>
      </trkpt>
      <trkpt lat="56.899854412878" lon="14.835067393985">
        <ele>170</ele>
        <time>2020-03-10T18:51:35Z</time>
      </trkpt>
      <trkpt lat="56.899992798047" lon="14.834806130162">
        <ele>170</ele>
        <time>2020-03-10T18:51:47Z</time>
      </trkpt>
      <trkpt lat="56.900162112427" lon="14.834682497137">
        <ele>171</ele>
        <time>2020-03-10T18:51:55Z</time>
      </trkpt>
      <trkpt lat="56.90033871906" lon="14.834540675389">
        <ele>171</ele>
        <time>2020-03-10T18:52:03Z</time>
      </trkpt>
      <trkpt lat="56.900514236046" lon="14.834409582473">
        <ele>170.8</ele>
        <time>2020-03-10T18:52:11Z</time>
      </trkpt>
      <trkpt lat="56.90068405334" lon="14.834292738787">
        <ele>169.6</ele>
        <time>2020-03-10T18:52:19Z</time>
      </trkpt>
      <trkpt lat="56.90085588229" lon="14.834191569254">
        <ele>171.2</ele>
        <time>2020-03-10T18:52:32Z</time>
      </trkpt>
      <trkpt lat="56.900935342702" lon="14.834159885672">
        <ele>171.2</ele>
        <time>2020-03-10T18:52:38Z</time>
      </trkpt>
      <trkpt lat="56.900950933036" lon="14.834177236205">
        <ele>171</ele>
        <time>2020-03-10T18:52:40Z</time>
      </trkpt>
      <trkpt lat="56.900945652439" lon="14.834219983895">
        <ele>170.6</ele>
        <time>2020-03-10T18:52:42Z</time>
      </trkpt>
      <trkpt lat="56.900926457888" lon="14.834236915333">
        <ele>170.6</ele>
        <time>2020-03-10T18:52:46Z</time>
      </trkpt>
      <trkpt lat="56.900937102901" lon="14.834220235352">
        <ele>170.8</ele>
        <time>2020-03-10T18:52:54Z</time>
      </trkpt>
      <trkpt lat="56.901059981555" lon="14.833923767549">
        <ele>171.2</ele>
        <time>2020-03-10T19:02:30Z</time>
      </trkpt>
      <trkpt lat="56.901130138058" lon="14.833598046915">
        <ele>170.6</ele>
        <time>2020-03-10T19:02:42Z</time>
      </trkpt>
      <trkpt lat="56.901054700958" lon="14.833269979349">
        <ele>170.4</ele>
        <time>2020-03-10T19:02:51Z</time>
      </trkpt>
      <trkpt lat="56.901011869449" lon="14.832924812707">
        <ele>170.4</ele>
        <time>2020-03-10T19:03:01Z</time>
      </trkpt>
      <trkpt lat="56.900950262484" lon="14.832570928889">
        <ele>170.8</ele>
        <time>2020-03-10T19:03:09Z</time>
      </trkpt>
      <trkpt lat="56.900864934742" lon="14.832239005649">
        <ele>170.8</ele>
        <time>2020-03-10T19:03:16Z</time>
      </trkpt>
      <trkpt lat="56.900773991127" lon="14.83194304076">
        <ele>171</ele>
        <time>2020-03-10T19:03:24Z</time>
      </trkpt>
      <trkpt lat="56.900690507403" lon="14.831621762533">
        <ele>171.2</ele>
        <time>2020-03-10T19:03:33Z</time>
      </trkpt>
      <trkpt lat="56.900613310104" lon="14.831298305012">
        <ele>171.2</ele>
        <time>2020-03-10T19:03:43Z</time>
      </trkpt>
      <trkpt lat="56.900554050071" lon="14.830988509988">
        <ele>171</ele>
        <time>2020-03-10T19:03:51Z</time>
      </trkpt>
      <trkpt lat="56.900481127541" lon="14.830646025554">
        <ele>170.8</ele>
        <time>2020-03-10T19:04:00Z</time>
      </trkpt>
      <trkpt lat="56.9004108034" lon="14.830330866114">
        <ele>170.4</ele>
        <time>2020-03-10T19:04:08Z</time>
      </trkpt>
      <trkpt lat="56.900286248366" lon="14.830062561495">
        <ele>170.2</ele>
        <time>2020-03-10T19:04:17Z</time>
      </trkpt>
      <trkpt lat="56.90016605192" lon="14.829802135862">
        <ele>170</ele>
        <time>2020-03-10T19:04:25Z</time>
      </trkpt>
      <trkpt lat="56.899998749196" lon="14.829616309139">
        <ele>169.6</ele>
        <time>2020-03-10T19:04:32Z</time>
      </trkpt>
      <trkpt lat="56.89985843619" lon="14.829489323354">
        <ele>169.2</ele>
        <time>2020-03-10T19:04:37Z</time>
      </trkpt>
      <trkpt lat="56.899686020507" lon="14.829356302601">
        <ele>168.4</ele>
        <time>2020-03-10T19:04:44Z</time>
      </trkpt>
      <trkpt lat="56.899511844625" lon="14.82920886498">
        <ele>168.4</ele>
        <time>2020-03-10T19:04:52Z</time>
      </trkpt>
      <trkpt lat="56.899339093666" lon="14.829079448444">
        <ele>168.4</ele>
        <time>2020-03-10T19:05:00Z</time>
      </trkpt>
      <trkpt lat="56.89922476455" lon="14.828967298622">
        <ele>168.2</ele>
        <time>2020-03-10T19:05:06Z</time>
      </trkpt>
      <trkpt lat="56.899206156732" lon="14.828636465029">
        <ele>167.8</ele>
        <time>2020-03-10T19:05:16Z</time>
      </trkpt>
      <trkpt lat="56.899163995775" lon="14.828531439822">
        <ele>168.2</ele>
        <time>2020-03-10T19:05:18Z</time>
      </trkpt>
      <trkpt lat="56.899058300016" lon="14.828168335914">
        <ele>168.4</ele>
        <time>2020-03-10T19:05:23Z</time>
      </trkpt>
      <trkpt lat="56.898951766067" lon="14.827872706301">
        <ele>168</ele>
        <time>2020-03-10T19:05:29Z</time>
      </trkpt>
      <trkpt lat="56.898807513568" lon="14.827659638403">
        <ele>168.4</ele>
        <time>2020-03-10T19:05:37Z</time>
      </trkpt>
      <trkpt lat="56.898659070119" lon="14.827433410922">
        <ele>168.4</ele>
        <time>2020-03-10T19:05:46Z</time>
      </trkpt>
      <trkpt lat="56.898536778198" lon="14.827191006374">
        <ele>168.4</ele>
        <time>2020-03-10T19:05:54Z</time>
      </trkpt>
      <trkpt lat="56.898387915654" lon="14.826998641769">
        <ele>168.4</ele>
        <time>2020-03-10T19:06:02Z</time>
      </trkpt>
      <trkpt lat="56.898217930722" lon="14.826810049019">
        <ele>168.6</ele>
        <time>2020-03-10T19:06:12Z</time>
      </trkpt>
      <trkpt lat="56.898049370713" lon="14.826650792919">
        <ele>169</ele>
        <time>2020-03-10T19:06:21Z</time>
      </trkpt>
      <trkpt lat="56.898013496181" lon="14.826613409645">
        <ele>169.2</ele>
        <time>2020-03-10T19:06:23Z</time>
      </trkpt>
      <trkpt lat="56.897841331955" lon="14.826445017274">
        <ele>169.2</ele>
        <time>2020-03-10T19:06:31Z</time>
      </trkpt>
      <trkpt lat="56.897678555457" lon="14.82629615473">
        <ele>169.2</ele>
        <time>2020-03-10T19:06:39Z</time>
      </trkpt>
      <trkpt lat="56.897515946597" lon="14.826110747102">
        <ele>168.8</ele>
        <time>2020-03-10T19:06:47Z</time>
      </trkpt>
      <trkpt lat="56.897355265574" lon="14.825925255655">
        <ele>169.6</ele>
        <time>2020-03-10T19:06:55Z</time>
      </trkpt>
      <trkpt lat="56.897181089692" lon="14.825829953452">
        <ele>169.2</ele>
        <time>2020-03-10T19:07:03Z</time>
      </trkpt>
      <trkpt lat="56.896986042879" lon="14.825855099152">
        <ele>169.6</ele>
        <time>2020-03-10T19:07:12Z</time>
      </trkpt>
      <trkpt lat="56.896824523666" lon="14.825996166529">
        <ele>169.8</ele>
        <time>2020-03-10T19:07:21Z</time>
      </trkpt>
      <trkpt lat="56.896665854299" lon="14.826204289106">
        <ele>170</ele>
        <time>2020-03-10T19:07:29Z</time>
      </trkpt>
      <trkpt lat="56.896510118597" lon="14.826390283467">
        <ele>170</ele>
        <time>2020-03-10T19:07:36Z</time>
      </trkpt>
      <trkpt lat="56.896339379294" lon="14.826523723315">
        <ele>169.6</ele>
        <time>2020-03-10T19:07:44Z</time>
      </trkpt>
      <trkpt lat="56.896159000806" lon="14.82657862476">
        <ele>169.4</ele>
        <time>2020-03-10T19:07:52Z</time>
      </trkpt>
      <trkpt lat="56.89597845468" lon="14.826575523457">
        <ele>169.2</ele>
        <time>2020-03-10T19:07:59Z</time>
      </trkpt>
      <trkpt lat="56.895798160011" lon="14.82647133644">
        <ele>169.2</ele>
        <time>2020-03-10T19:08:06Z</time>
      </trkpt>
      <trkpt lat="56.895627504527" lon="14.826322306258">
        <ele>168.8</ele>
        <time>2020-03-10T19:08:13Z</time>
      </trkpt>
      <trkpt lat="56.895465901495" lon="14.826162966339">
        <ele>168.8</ele>
        <time>2020-03-10T19:08:20Z</time>
      </trkpt>
      <trkpt lat="56.895318547693" lon="14.825939253428">
        <ele>169</ele>
        <time>2020-03-10T19:08:28Z</time>
      </trkpt>
      <trkpt lat="56.895199273256" lon="14.825662399271">
        <ele>169</ele>
        <time>2020-03-10T19:08:37Z</time>
      </trkpt>
      <trkpt lat="56.895083938312" lon="14.825409852624">
        <ele>169.8</ele>
        <time>2020-03-10T19:08:45Z</time>
      </trkpt>
      <trkpt lat="56.895001711873" lon="14.825249003963">
        <ele>170.2</ele>
        <time>2020-03-10T19:08:50Z</time>
      </trkpt>
      <trkpt lat="56.8948871313" lon="14.824970473426">
        <ele>170.2</ele>
        <time>2020-03-10T19:08:58Z</time>
      </trkpt>
      <trkpt lat="56.894781603179" lon="14.824677945116">
        <ele>170.4</ele>
        <time>2020-03-10T19:09:06Z</time>
      </trkpt>
      <trkpt lat="56.894692755039" lon="14.824384830073">
        <ele>170.4</ele>
        <time>2020-03-10T19:09:14Z</time>
      </trkpt>
      <trkpt lat="56.8946021467" lon="14.824060115267">
        <ele>170.4</ele>
        <time>2020-03-10T19:09:23Z</time>
      </trkpt>
      <trkpt lat="56.894477088752" lon="14.823776471771">
        <ele>170.4</ele>
        <time>2020-03-10T19:09:30Z</time>
      </trkpt>
      <trkpt lat="56.894373991382" lon="14.823501042537">
        <ele>170.4</ele>
        <time>2020-03-10T19:09:37Z</time>
      </trkpt>
      <trkpt lat="56.894257399153" lon="14.823239611076">
        <ele>170</ele>
        <time>2020-03-10T19:09:44Z</time>
      </trkpt>
      <trkpt lat="56.894093281551" lon="14.823032997241">
        <ele>169.4</ele>
        <time>2020-03-10T19:09:52Z</time>
      </trkpt>
      <trkpt lat="56.89390477262" lon="14.822902826334">
        <ele>170</ele>
        <time>2020-03-10T19:10:00Z</time>
      </trkpt>
      <trkpt lat="56.893710144902" lon="14.822854798047">
        <ele>169.8</ele>
        <time>2020-03-10T19:10:08Z</time>
      </trkpt>
      <trkpt lat="56.893524988731" lon="14.822857731712">
        <ele>170.4</ele>
        <time>2020-03-10T19:10:16Z</time>
      </trkpt>
      <trkpt lat="56.89333564161" lon="14.822881117213">
        <ele>169.8</ele>
        <time>2020-03-10T19:10:24Z</time>
      </trkpt>
      <trkpt lat="56.893138080227" lon="14.822888660923">
        <ele>170.8</ele>
        <time>2020-03-10T19:10:32Z</time>
      </trkpt>
      <trkpt lat="56.892941021758" lon="14.822900144126">
        <ele>170.8</ele>
        <time>2020-03-10T19:10:40Z</time>
      </trkpt>
      <trkpt lat="56.892820238579" lon="14.822900730859">
        <ele>171</ele>
        <time>2020-03-10T19:10:45Z</time>
      </trkpt>
      <trkpt lat="56.892746561678" lon="14.822909280397">
        <ele>171.2</ele>
        <time>2020-03-10T19:10:48Z</time>
      </trkpt>
      <trkpt lat="56.892563836258" lon="14.822927133844">
        <ele>171.6</ele>
        <time>2020-03-10T19:10:56Z</time>
      </trkpt>
      <trkpt lat="56.892411285678" lon="14.822942388902">
        <ele>172.4</ele>
        <time>2020-03-10T19:11:03Z</time>
      </trkpt>
      <trkpt lat="56.892232164475" lon="14.822968708068">
        <ele>172.2</ele>
        <time>2020-03-10T19:11:10Z</time>
      </trkpt>
      <trkpt lat="56.892030831237" lon="14.823034086888">
        <ele>172</ele>
        <time>2020-03-10T19:11:18Z</time>
      </trkpt>
      <trkpt lat="56.89183109056" lon="14.823065938108">
        <ele>172.4</ele>
        <time>2020-03-10T19:11:26Z</time>
      </trkpt>
      <trkpt lat="56.891634870281" lon="14.823126036331">
        <ele>172.8</ele>
        <time>2020-03-10T19:11:34Z</time>
      </trkpt>
      <trkpt lat="56.891434710509" lon="14.823117989707">
        <ele>173</ele>
        <time>2020-03-10T19:11:42Z</time>
      </trkpt>
      <trkpt lat="56.891350975328" lon="14.823115726594">
        <ele>173.2</ele>
        <time>2020-03-10T19:11:46Z</time>
      </trkpt>
      <trkpt lat="56.891336474641" lon="14.823426108351">
        <ele>173.4</ele>
        <time>2020-03-10T19:11:54Z</time>
      </trkpt>
      <trkpt lat="56.89136840968" lon="14.82376482093">
        <ele>173</ele>
        <time>2020-03-10T19:12:02Z</time>
      </trkpt>
      <trkpt lat="56.891323063601" lon="14.824080902379">
        <ele>172.6</ele>
        <time>2020-03-10T19:12:11Z</time>
      </trkpt>
    </trkseg>
  </trk>
</gpx>